Time;durP1;ratioP1;P1;durP2;ratioP2;P2;SDS_P1;SDS_P2;PMS_P1;PMS_P2;Temp;Humidity;BMP_temperature;BMP_pressure;BME280_temperature;BME280_humidity;BME280_pressure;Samples;Min_cycle;Max_cycle;Signal;HPM_P1;HPM_P2
2022/04/11 00:00:35;;;;;;;2.70;2.50;;;9.70;53.30;;;;;;6214221;23;20008;-73
2022/04/11 00:03:00;;;;;;;2.70;2.50;;;9.60;53.40;;;;;;6214653;23;20000;-74
2022/04/11 00:05:26;;;;;;;2.97;2.78;;;9.60;53.60;;;;;;6214556;23;20063;-74
2022/04/11 00:07:52;;;;;;;2.97;2.70;;;9.60;53.60;;;;;;6187743;23;20080;-74
2022/04/11 00:10:18;;;;;;;3.78;2.60;;;9.60;53.60;;;;;;6214337;23;20012;-74
2022/04/11 00:12:46;;;;;;;2.47;2.35;;;9.60;53.50;;;;;;6214090;23;20000;-74
2022/04/11 00:15:12;;;;;;;3.47;2.38;;;9.70;53.50;;;;;;6214420;23;20004;-74
2022/04/11 00:17:38;;;;;;;2.45;2.25;;;9.70;53.50;;;;;;6187958;23;20413;-73
2022/04/11 00:20:05;;;;;;;2.90;2.70;;;9.60;53.50;;;;;;6187754;23;20091;-74
2022/04/11 00:22:34;;;;;;;2.97;2.30;;;9.60;53.60;;;;;;6187703;23;20341;-74
2022/04/11 00:25:00;;;;;;;2.90;2.70;;;9.60;53.60;;;;;;6214517;23;20075;-74
2022/04/11 00:27:26;;;;;;;2.50;2.30;;;9.60;53.60;;;;;;6214431;23;20055;-74
2022/04/11 00:29:51;;;;;;;2.60;2.40;;;9.60;53.50;;;;;;6187613;23;20436;-74
2022/04/11 00:32:17;;;;;;;3.08;2.35;;;9.60;53.60;;;;;;6214517;23;20010;-73
2022/04/11 00:34:43;;;;;;;2.53;2.00;;;9.60;54.20;;;;;;6187453;23;20372;-74
2022/04/11 00:37:08;;;;;;;2.15;2.00;;;9.50;54.40;;;;;;6213979;23;20001;-73
2022/04/11 00:39:34;;;;;;;2.72;2.53;;;9.50;54.40;;;;;;6214483;23;20004;-74
2022/04/11 00:42:08;;;;;;;2.63;2.42;;;9.40;54.50;;;;;;6214108;23;20483;-74
2022/04/11 00:44:34;;;;;;;2.78;2.38;;;9.40;54.10;;;;;;6187465;23;20028;-74
2022/04/11 00:46:59;;;;;;;2.50;2.33;;;9.40;54.50;;;;;;6213945;23;20425;-74
2022/04/11 00:49:25;;;;;;;3.28;2.30;;;9.40;54.70;;;;;;6214172;23;20000;-74
2022/04/11 00:51:51;;;;;;;2.53;2.33;;;9.30;54.80;;;;;;6214208;23;20417;-74
2022/04/11 00:54:17;;;;;;;2.63;2.30;;;9.30;54.70;;;;;;6213847;23;20004;-74
2022/04/11 00:56:44;;;;;;;2.63;2.42;;;9.40;54.60;;;;;;6214195;23;20076;-73
2022/04/11 00:59:13;;;;;;;2.88;2.20;;;9.40;55.40;;;;;;6213923;23;20424;-74
2022/04/11 01:01:39;;;;;;;2.25;2.15;;;9.30;54.40;;;;;;6187159;23;20040;-73
2022/04/11 01:04:22;;;;;;;2.05;1.85;;;9.30;54.50;;;;;;6213899;23;20001;-74
2022/04/11 01:06:55;;;;;;;4.57;2.72;;;9.40;55.00;;;;;;6213970;23;20000;-74
2022/04/11 01:09:23;;;;;;;2.35;2.15;;;9.30;55.00;;;;;;6213861;23;20061;-74
2022/04/11 01:11:49;;;;;;;2.55;2.35;;;9.40;54.80;;;;;;6214074;23;20455;-74
2022/04/11 01:14:15;;;;;;;2.35;2.17;;;9.40;54.70;;;;;;6213837;23;20001;-74
2022/04/11 01:16:50;;;;;;;2.85;2.17;;;9.30;54.50;;;;;;6213771;23;20458;-74
2022/04/11 01:19:17;;;;;;;2.30;2.10;;;9.30;54.70;;;;;;6213706;23;20001;-74
2022/04/11 01:21:44;;;;;;;2.72;2.47;;;9.30;55.00;;;;;;6213449;23;20001;-74
2022/04/11 01:24:09;;;;;;;3.35;2.30;;;9.30;54.80;;;;;;6213998;23;20333;-74
2022/04/11 01:26:36;;;;;;;2.22;2.10;;;9.30;54.80;;;;;;6213738;23;20007;-74
2022/04/11 01:29:04;;;;;;;4.10;1.95;;;9.30;55.00;;;;;;6213607;23;20000;-74
2022/04/11 01:31:30;;;;;;;3.05;2.25;;;9.30;54.70;;;;;;6187189;23;20009;-73
2022/04/11 01:33:57;;;;;;;2.47;2.28;;;9.30;55.00;;;;;;6187110;23;20032;-73
2022/04/11 01:36:23;;;;;;;2.30;2.20;;;9.30;54.70;;;;;;6213567;23;20013;-74
2022/04/11 01:38:48;;;;;;;2.42;2.20;;;9.30;54.40;;;;;;6213644;23;20032;-73
2022/04/11 01:41:14;;;;;;;2.53;2.35;;;9.30;54.70;;;;;;6186893;23;20328;-73
2022/04/11 01:43:40;;;;;;;2.67;2.50;;;9.30;54.80;;;;;;6186884;23;20008;-74
2022/04/11 01:46:06;;;;;;;2.30;2.10;;;9.30;55.10;;;;;;6213789;23;20001;-73
2022/04/11 01:48:31;;;;;;;3.08;1.90;;;9.20;55.40;;;;;;6213418;23;20047;-73
2022/04/11 01:50:57;;;;;;;2.28;1.70;;;9.20;55.30;;;;;;6213566;23;20005;-73
2022/04/11 01:53:23;;;;;;;2.10;2.00;;;9.20;55.60;;;;;;6213522;23;20039;-73
2022/04/11 01:55:51;;;;;;;3.08;2.35;;;9.10;55.60;;;;;;6213495;23;20309;-74
2022/04/11 01:58:17;;;;;;;2.00;1.90;;;9.10;55.70;;;;;;6213378;23;20004;-74
2022/04/11 02:00:43;;;;;;;5.20;2.00;;;9.20;55.70;;;;;;6186727;23;20516;-74
2022/04/11 02:03:10;;;;;;;2.22;2.03;;;9.10;55.10;;;;;;6186807;23;20067;-74
2022/04/11 02:05:36;;;;;;;2.50;1.88;;;9.20;54.80;;;;;;6186726;23;20075;-73
2022/04/11 02:08:05;;;;;;;1.92;1.77;;;9.20;54.40;;;;;;6213450;23;20000;-73
2022/04/11 02:10:30;;;;;;;2.13;2.03;;;9.20;54.70;;;;;;6213224;23;20017;-73
2022/04/11 02:12:58;;;;;;;1.77;1.67;;;9.20;54.50;;;;;;6186518;23;20036;-73
2022/04/11 02:15:23;;;;;;;2.10;2.00;;;9.20;54.60;;;;;;6213464;23;20001;-73
2022/04/11 02:17:52;;;;;;;2.40;2.20;;;9.20;54.30;;;;;;6186792;23;20314;-73
2022/04/11 02:20:18;;;;;;;2.10;2.00;;;9.30;54.40;;;;;;6186751;23;20015;-73
2022/04/11 02:22:53;;;;;;;2.53;2.33;;;9.30;54.30;;;;;;6186529;23;20320;-74
2022/04/11 02:25:21;;;;;;;2.67;2.47;;;9.30;54.20;;;;;;6186677;23;20000;-74
2022/04/11 02:27:48;;;;;;;2.20;1.98;;;9.30;54.30;;;;;;6213184;23;20063;-74
2022/04/11 02:30:15;;;;;;;1.92;1.83;;;9.30;53.70;;;;;;6186830;23;20001;-74
2022/04/11 02:32:41;;;;;;;1.77;1.67;;;9.30;53.70;;;;;;6213603;23;20024;-74
2022/04/11 02:35:08;;;;;;;1.83;1.73;;;9.20;53.80;;;;;;6188726;23;20437;-74
2022/04/11 02:37:34;;;;;;;3.17;2.20;;;9.20;54.00;;;;;;6215150;23;19997;-74
2022/04/11 02:40:03;;;;;;;2.10;1.92;;;9.20;54.60;;;;;;6215428;23;20007;-73
2022/04/11 02:42:29;;;;;;;4.93;1.90;;;9.20;54.90;;;;;;6188343;23;20083;-74
2022/04/11 02:44:55;;;;;;;3.30;2.00;;;9.20;54.90;;;;;;6215171;23;20066;-74
2022/04/11 02:47:24;;;;;;;1.95;1.80;;;9.20;54.50;;;;;;6188498;23;20083;-74
2022/04/11 02:49:50;;;;;;;1.70;1.60;;;9.20;54.30;;;;;;6215404;23;20000;-74
2022/04/11 02:52:16;;;;;;;2.05;1.60;;;9.20;53.60;;;;;;6215078;23;20032;-74
2022/04/11 02:54:42;;;;;;;2.00;1.90;;;9.20;53.40;;;;;;6215109;23;20011;-74
2022/04/11 02:57:08;;;;;;;1.95;1.77;;;9.20;53.30;;;;;;6215329;23;20372;-74
2022/04/11 02:59:35;;;;;;;2.10;1.90;;;9.20;53.40;;;;;;6215199;23;20340;-74
2022/04/11 03:02:02;;;;;;;2.03;1.92;;;9.20;52.90;;;;;;6214951;23;20432;-74
2022/04/11 03:04:28;;;;;;;2.00;1.90;;;9.30;52.80;;;;;;6215279;23;20008;-74
2022/04/11 03:06:54;;;;;;;1.92;1.77;;;9.30;52.90;;;;;;6214975;23;20333;-74
2022/04/11 03:09:21;;;;;;;1.85;1.75;;;9.30;53.20;;;;;;6214884;23;20011;-74
2022/04/11 03:11:47;;;;;;;2.33;1.77;;;9.30;53.90;;;;;;6215191;23;20016;-74
2022/04/11 03:14:12;;;;;;;1.85;1.67;;;9.30;53.10;;;;;;6214984;23;20004;-74
2022/04/11 03:16:40;;;;;;;1.83;1.73;;;9.30;53.10;;;;;;6214927;23;20387;-74
2022/04/11 03:19:06;;;;;;;1.73;1.63;;;9.30;53.10;;;;;;6215100;23;20087;-73
2022/04/11 03:21:32;;;;;;;1.85;1.75;;;9.30;53.30;;;;;;6214998;23;20059;-74
2022/04/11 03:23:58;;;;;;;1.95;1.80;;;9.30;53.00;;;;;;6214777;23;20468;-74
2022/04/11 03:26:24;;;;;;;2.10;2.00;;;9.30;53.80;;;;;;6188414;23;20000;-73
2022/04/11 03:28:49;;;;;;;1.80;1.70;;;9.30;52.90;;;;;;6214762;23;19993;-73
2022/04/11 03:31:15;;;;;;;2.40;2.13;;;9.30;53.00;;;;;;6214815;23;20004;-73
2022/04/11 03:33:41;;;;;;;2.58;1.48;;;9.30;52.90;;;;;;6214943;23;20054;-74
2022/04/11 03:36:07;;;;;;;2.08;1.98;;;9.40;52.60;;;;;;6214682;23;20005;-74
2022/04/11 03:38:33;;;;;;;1.83;1.73;;;9.40;52.50;;;;;;6214633;23;20016;-74
2022/04/11 03:41:01;;;;;;;2.33;2.13;;;9.40;52.30;;;;;;6188208;23;20031;-74
2022/04/11 03:43:27;;;;;;;3.15;2.30;;;9.40;51.80;;;;;;6188367;23;20059;-74
2022/04/11 03:45:53;;;;;;;1.70;1.60;;;9.50;51.70;;;;;;6214090;23;19997;-73
2022/04/11 03:48:19;;;;;;;1.55;1.45;;;9.50;51.90;;;;;;6214511;23;20000;-74
2022/04/11 03:50:45;;;;;;;1.98;1.70;;;9.40;51.90;;;;;;6214641;23;20005;-74
2022/04/11 03:53:11;;;;;;;3.25;2.25;;;9.50;52.30;;;;;;6214651;23;20000;-73
2022/04/11 03:55:37;;;;;;;2.08;1.98;;;9.40;52.00;;;;;;6214827;23;20005;-74
2022/04/11 03:58:05;;;;;;;1.98;1.83;;;9.50;51.70;;;;;;6187839;23;20092;-74
2022/04/11 04:00:31;;;;;;;1.95;1.65;;;9.40;52.20;;;;;;6214427;23;20028;-74
2022/04/11 04:03:10;;;;;;;1.60;1.50;;;9.50;52.00;;;;;;6214664;23;20004;-74
2022/04/11 04:05:43;;;;;;;1.90;1.80;;;9.40;52.10;;;;;;6214558;23;20483;-74
2022/04/11 04:08:10;;;;;;;2.03;1.92;;;9.40;52.40;;;;;;6214437;23;19997;-73
2022/04/11 04:10:36;;;;;;;2.05;1.63;;;9.40;52.50;;;;;;6214174;23;20020;-73
2022/04/11 04:13:02;;;;;;;2.45;1.52;;;9.40;52.90;;;;;;6188025;23;20023;-78
2022/04/11 04:15:28;;;;;;;2.42;1.45;;;9.30;53.30;;;;;;6187679;23;20012;-78
2022/04/11 04:17:57;;;;;;;1.20;1.20;;;9.30;53.50;;;;;;6187668;23;20001;-78
2022/04/11 04:20:26;;;;;;;1.80;1.70;;;9.30;53.10;;;;;;6214274;23;20057;-78
2022/04/11 04:22:55;;;;;;;3.88;2.00;;;9.20;53.40;;;;;;6187859;23;20371;-78
2022/04/11 04:25:21;;;;;;;1.75;1.58;;;9.30;53.80;;;;;;6214565;23;19996;-78
2022/04/11 04:27:47;;;;;;;1.98;1.70;;;9.20;53.30;;;;;;6214048;23;19997;-78
2022/04/11 04:30:13;;;;;;;1.80;1.70;;;9.20;53.70;;;;;;6214511;23;20003;-78
2022/04/11 04:32:39;;;;;;;5.63;1.58;;;9.20;53.20;;;;;;6214297;23;20023;-78
2022/04/11 04:35:06;;;;;;;1.92;1.67;;;9.20;53.80;;;;;;6187780;23;20011;-78
2022/04/11 04:37:32;;;;;;;2.25;1.60;;;9.20;53.60;;;;;;6214178;23;20004;-78
2022/04/11 04:39:58;;;;;;;1.83;1.63;;;9.20;53.10;;;;;;6187847;23;20341;-78
2022/04/11 04:42:28;;;;;;;1.95;1.85;;;9.20;52.90;;;;;;6214302;23;20008;-78
2022/04/11 04:44:54;;;;;;;2.60;1.52;;;9.10;53.40;;;;;;6214272;23;20001;-78
2022/04/11 04:47:20;;;;;;;3.95;1.70;;;9.20;53.50;;;;;;6214194;23;20007;-78
2022/04/11 04:49:46;;;;;;;1.65;1.55;;;9.20;53.00;;;;;;6214178;23;20001;-78
2022/04/11 04:52:12;;;;;;;2.72;1.90;;;9.20;52.20;;;;;;6214376;23;20012;-78
2022/04/11 04:54:38;;;;;;;1.55;1.45;;;9.20;51.50;;;;;;6214421;23;20068;-78
2022/04/11 04:57:05;;;;;;;1.70;1.60;;;9.20;51.40;;;;;;6187541;23;20039;-78
2022/04/11 04:59:31;;;;;;;2.47;1.75;;;9.20;51.50;;;;;;6214158;23;20432;-78
2022/04/11 05:01:56;;;;;;;1.98;1.83;;;9.20;51.30;;;;;;6213928;23;20020;-78
2022/04/11 05:04:22;;;;;;;2.00;1.48;;;9.20;51.00;;;;;;6212329;23;20000;-78
2022/04/11 05:06:48;;;;;;;2.15;2.00;;;9.20;51.30;;;;;;6211596;23;20015;-78
2022/04/11 05:09:14;;;;;;;1.52;1.42;;;9.10;51.30;;;;;;6211721;23;19989;-78
2022/04/11 05:11:40;;;;;;;3.65;1.80;;;9.10;52.00;;;;;;6185521;23;20021;-79
2022/04/11 05:14:06;;;;;;;2.25;1.73;;;9.10;52.10;;;;;;6212755;23;20028;-78
2022/04/11 05:16:32;;;;;;;1.63;1.52;;;9.10;52.20;;;;;;6212563;23;20535;-78
2022/04/11 05:18:58;;;;;;;1.67;1.40;;;9.10;52.60;;;;;;6212491;23;20005;-78
2022/04/11 05:21:23;;;;;;;2.97;1.73;;;9.10;52.60;;;;;;6210678;23;20004;-78
2022/04/11 05:23:49;;;;;;;2.28;1.80;;;9.10;52.20;;;;;;6183568;23;20001;-74
2022/04/11 05:26:15;;;;;;;1.55;1.45;;;9.00;52.60;;;;;;6182797;23;20092;-74
2022/04/11 05:28:41;;;;;;;3.75;1.63;;;9.00;52.90;;;;;;6209743;23;20000;-74
2022/04/11 05:31:06;;;;;;;3.05;1.40;;;9.00;52.50;;;;;;6209971;23;20001;-73
2022/04/11 05:33:32;;;;;;;4.13;1.52;;;9.00;52.10;;;;;;6210970;23;20001;-74
2022/04/11 05:35:58;;;;;;;1.45;1.30;;;9.00;51.90;;;;;;6213408;23;20009;-74
2022/04/11 05:38:24;;;;;;;3.03;1.65;;;9.00;51.90;;;;;;6187413;23;20337;-74
2022/04/11 05:40:51;;;;;;;6.28;1.58;;;9.00;52.20;;;;;;6213718;23;20001;-74
2022/04/11 05:43:16;;;;;;;3.00;1.80;;;8.90;52.20;;;;;;6187323;23;20005;-74
2022/04/11 05:45:42;;;;;;;2.72;1.67;;;8.90;52.30;;;;;;6213569;23;20576;-74
2022/04/11 05:48:09;;;;;;;4.20;1.80;;;9.00;52.30;;;;;;6213366;23;20015;-73
2022/04/11 05:50:38;;;;;;;1.83;1.73;;;9.00;52.30;;;;;;6213523;23;20421;-73
2022/04/11 05:53:04;;;;;;;3.05;1.77;;;9.10;51.80;;;;;;6212713;23;20007;-78
2022/04/11 05:55:29;;;;;;;2.88;1.45;;;9.10;51.10;;;;;;6213668;23;20429;-78
2022/04/11 05:57:55;;;;;;;1.73;1.42;;;9.20;50.30;;;;;;6213833;23;20076;-78
2022/04/11 06:00:21;;;;;;;2.92;1.30;;;9.30;49.60;;;;;;6213162;23;20024;-78
2022/04/11 06:02:48;;;;;;;1.20;1.20;;;9.50;47.80;;;;;;6213914;23;19997;-78
2022/04/11 06:05:14;;;;;;;2.92;1.30;;;9.50;46.50;;;;;;6214146;23;20007;-78
2022/04/11 06:07:40;;;;;;;1.38;1.25;;;9.60;45.90;;;;;;6213999;23;19997;-78
2022/04/11 06:10:07;;;;;;;1.40;1.30;;;9.80;45.50;;;;;;6187611;23;20016;-78
2022/04/11 06:12:37;;;;;;;2.38;1.42;;;9.90;45.00;;;;;;6214125;23;20448;-78
2022/04/11 06:15:04;;;;;;;1.52;1.42;;;10.00;44.70;;;;;;6214498;23;20008;-78
2022/04/11 06:17:30;;;;;;;1.23;1.20;;;10.00;44.40;;;;;;6187369;23;20092;-78
2022/04/11 06:19:57;;;;;;;1.67;1.17;;;10.10;44.10;;;;;;6188504;23;20040;-78
2022/04/11 06:22:24;;;;;;;1.10;1.10;;;10.10;44.10;;;;;;6215032;23;20008;-78
2022/04/11 06:24:50;;;;;;;2.40;1.50;;;10.20;43.90;;;;;;6215113;23;19996;-78
2022/04/11 06:27:20;;;;;;;1.42;1.17;;;10.20;44.10;;;;;;6215096;23;20031;-78
2022/04/11 06:29:46;;;;;;;1.52;1.40;;;10.20;45.60;;;;;;6215330;23;19996;-78
2022/04/11 06:32:12;;;;;;;1.88;1.60;;;10.20;46.90;;;;;;6215065;23;20005;-78
2022/04/11 06:34:38;;;;;;;2.35;1.48;;;10.20;46.90;;;;;;6215213;23;20004;-78
2022/04/11 06:37:04;;;;;;;3.78;1.17;;;10.20;47.10;;;;;;6214776;23;20080;-78
2022/04/11 06:39:30;;;;;;;2.63;1.40;;;10.20;46.90;;;;;;6188146;23;20013;-78
2022/04/11 06:41:57;;;;;;;1.27;1.23;;;10.30;46.70;;;;;;6214783;23;20004;-78
2022/04/11 06:44:23;;;;;;;1.35;1.25;;;10.30;46.70;;;;;;6214724;23;20004;-78
2022/04/11 06:46:49;;;;;;;2.05;1.85;;;10.40;46.40;;;;;;6214810;23;20012;-78
2022/04/11 06:49:15;;;;;;;2.00;1.33;;;10.50;46.10;;;;;;6188297;23;20336;-78
2022/04/11 06:51:41;;;;;;;4.40;1.50;;;10.50;45.70;;;;;;6188382;23;20432;-78
2022/04/11 06:54:07;;;;;;;1.92;1.10;;;10.60;45.90;;;;;;6215117;23;20047;-78
2022/04/11 06:56:32;;;;;;;1.50;1.40;;;10.60;46.30;;;;;;6188330;23;20005;-78
2022/04/11 06:58:58;;;;;;;2.47;1.48;;;10.70;46.50;;;;;;6215130;23;20008;-78
2022/04/11 07:01:24;;;;;;;0.90;0.90;;;10.70;45.80;;;;;;6215036;23;20005;-78
2022/04/11 07:03:51;;;;;;;1.70;1.40;;;10.80;45.60;;;;;;6215188;23;20309;-78
2022/04/11 07:06:17;;;;;;;1.45;1.30;;;10.80;46.30;;;;;;6188289;23;20362;-78
2022/04/11 07:08:42;;;;;;;2.55;1.00;;;11.00;47.90;;;;;;6215020;23;19992;-78
2022/04/11 07:11:08;;;;;;;2.00;1.58;;;11.10;48.00;;;;;;6214789;23;20024;-78
2022/04/11 07:13:34;;;;;;;2.17;1.70;;;11.20;47.00;;;;;;6215106;23;20384;-78
2022/04/11 07:16:00;;;;;;;1.35;1.25;;;11.30;48.10;;;;;;6214912;23;20032;-78
2022/04/11 07:18:27;;;;;;;1.48;1.38;;;11.30;47.30;;;;;;6187983;23;20314;-78
2022/04/11 07:20:56;;;;;;;1.52;1.40;;;11.40;46.50;;;;;;6189046;23;20012;-78
2022/04/11 07:23:22;;;;;;;8.52;2.03;;;11.50;44.60;;;;;;6215813;23;20310;-78
2022/04/11 07:25:48;;;;;;;3.55;1.98;;;11.50;47.20;;;;;;6188604;23;20007;-78
2022/04/11 07:28:14;;;;;;;2.63;1.48;;;11.50;47.60;;;;;;6189229;23;20009;-78
2022/04/11 07:30:40;;;;;;;4.55;1.75;;;11.60;47.30;;;;;;6188781;23;20337;-78
2022/04/11 07:33:06;;;;;;;5.15;1.58;;;11.70;48.80;;;;;;6216237;23;20004;-78
2022/04/11 07:35:32;;;;;;;3.38;1.63;;;11.70;49.20;;;;;;6188981;23;20009;-78
2022/04/11 07:37:58;;;;;;;2.47;1.80;;;11.70;46.70;;;;;;6188842;23;20001;-78
2022/04/11 07:40:29;;;;;;;4.15;1.63;;;11.80;47.00;;;;;;6215244;23;20007;-78
2022/04/11 07:42:55;;;;;;;2.22;1.90;;;11.80;47.50;;;;;;6189146;23;20047;-78
2022/04/11 07:45:21;;;;;;;3.72;1.90;;;11.90;48.10;;;;;;6215898;23;20001;-78
2022/04/11 07:47:47;;;;;;;6.18;1.65;;;11.90;48.20;;;;;;6188985;23;20011;-78
2022/04/11 07:50:13;;;;;;;2.28;1.77;;;12.00;47.20;;;;;;6215329;23;20032;-78
2022/04/11 07:52:41;;;;;;;4.45;1.65;;;12.10;45.00;;;;;;6189520;23;20019;-78
2022/04/11 07:55:08;;;;;;;5.78;1.33;;;12.10;43.00;;;;;;6215805;23;20000;-78
2022/04/11 07:57:34;;;;;;;4.22;1.50;;;12.20;41.50;;;;;;6216049;23;20027;-78
2022/04/11 07:59:59;;;;;;;1.70;1.60;;;12.10;41.00;;;;;;6216291;23;20424;-78
2022/04/11 08:02:26;;;;;;;6.65;2.13;;;12.20;43.70;;;;;;6216125;23;20012;-78
2022/04/11 08:04:52;;;;;;;4.32;2.08;;;12.30;43.30;;;;;;6189515;23;20421;-78
2022/04/11 08:07:19;;;;;;;1.88;1.58;;;12.30;44.70;;;;;;6216310;23;20555;-78
2022/04/11 08:09:53;;;;;;;4.30;2.22;;;12.30;45.20;;;;;;6215949;23;20015;-78
2022/04/11 08:12:19;;;;;;;2.80;2.20;;;12.40;45.40;;;;;;6214829;23;20008;-77
2022/04/11 08:14:45;;;;;;;5.30;2.25;;;12.40;45.60;;;;;;6187419;23;20008;-78
2022/04/11 08:17:10;;;;;;;2.55;2.03;;;12.40;48.20;;;;;;6184651;23;20150;-78
2022/04/11 08:19:36;;;;;;;4.07;2.10;;;12.50;48.20;;;;;;6212062;23;20036;-79
2022/04/11 08:22:02;;;;;;;10.82;2.67;;;12.60;47.50;;;;;;6212318;23;20009;-79
2022/04/11 08:24:28;;;;;;;6.20;2.42;;;12.80;47.50;;;;;;6212562;23;20031;-80
2022/04/11 08:26:54;;;;;;;4.57;2.38;;;12.70;46.50;;;;;;6213001;23;20076;-78
2022/04/11 08:29:20;;;;;;;10.32;2.80;;;12.60;46.20;;;;;;6212245;23;20004;-79
2022/04/11 08:31:46;;;;;;;3.80;2.38;;;12.60;47.80;;;;;;6186170;23;20091;-80
2022/04/11 08:34:12;;;;;;;5.30;2.88;;;12.70;46.80;;;;;;6185111;23;20103;-79
2022/04/11 08:36:37;;;;;;;4.80;2.78;;;12.70;46.60;;;;;;6185194;23;20011;-78
2022/04/11 08:39:03;;;;;;;2.72;2.53;;;12.70;46.00;;;;;;6212456;23;20011;-78
2022/04/11 08:41:36;;;;;;;6.28;2.75;;;12.80;48.10;;;;;;6183003;23;20436;-78
2022/04/11 08:44:07;;;;;;;6.35;3.33;;;12.80;46.00;;;;;;6185206;23;20000;-77
2022/04/11 08:46:34;;;;;;;4.85;3.30;;;12.80;46.60;;;;;;6211468;23;20428;-78
2022/04/11 08:49:06;;;;;;;6.32;2.85;;;12.90;47.20;;;;;;6185365;23;20008;-77
2022/04/11 08:51:33;;;;;;;4.97;2.72;;;13.00;46.70;;;;;;6183047;23;20001;-78
2022/04/11 08:54:01;;;;;;;3.88;2.78;;;13.00;44.70;;;;;;6209471;23;20001;-77
2022/04/11 08:56:30;;;;;;;4.70;3.38;;;13.00;45.70;;;;;;6214115;23;20050;-77
2022/04/11 08:58:56;;;;;;;3.88;3.20;;;13.00;46.00;;;;;;6206833;23;20000;-77
2022/04/11 09:01:23;;;;;;;4.05;2.72;;;12.90;43.80;;;;;;6212886;23;20004;-73
2022/04/11 09:03:49;;;;;;;4.85;3.53;;;12.90;45.10;;;;;;6214893;23;20595;-73
2022/04/11 09:06:15;;;;;;;5.45;3.70;;;13.00;46.60;;;;;;6187465;23;20062;-73
2022/04/11 09:08:52;;;;;;;8.70;3.22;;;12.90;44.50;;;;;;6188139;23;20000;-73
2022/04/11 09:11:36;;;;;;;6.93;4.20;;;12.90;44.90;;;;;;6213737;23;20440;-78
2022/04/11 09:14:04;;;;;;;6.28;4.22;;;12.90;45.70;;;;;;6213911;23;20001;-78
2022/04/11 09:16:42;;;;;;;7.15;4.35;;;13.00;48.40;;;;;;6186719;23;20383;-78
2022/04/11 09:19:18;;;;;;;6.78;4.07;;;13.10;50.00;;;;;;6213573;23;20004;-78
2022/04/11 09:21:44;;;;;;;9.13;3.88;;;13.10;46.60;;;;;;6213703;23;20001;-78
2022/04/11 09:24:19;;;;;;;5.28;3.90;;;13.20;46.30;;;;;;6213988;23;20003;-78
2022/04/11 09:26:46;;;;;;;3.17;2.83;;;13.30;48.00;;;;;;6213756;23;20075;-78
2022/04/11 09:29:15;;;;;;;3.65;2.30;;;13.50;45.30;;;;;;6214058;23;19989;-78
2022/04/11 09:31:41;;;;;;;6.53;2.78;;;13.40;41.20;;;;;;6213912;23;20001;-78
2022/04/11 09:34:21;;;;;;;4.38;3.17;;;13.30;42.00;;;;;;6213690;23;20004;-78
2022/04/11 09:36:51;;;;;;;4.55;3.47;;;13.30;43.80;;;;;;6213534;23;20031;-78
2022/04/11 09:39:26;;;;;;;4.50;3.33;;;13.50;45.40;;;;;;6213877;23;20317;-78
2022/04/11 09:41:52;;;;;;;5.50;4.03;;;13.40;44.90;;;;;;6212607;23;20005;-78
2022/04/11 09:44:21;;;;;;;8.50;4.53;;;13.50;45.60;;;;;;6213400;23;20026;-78
2022/04/11 09:46:47;;;;;;;6.32;4.07;;;13.40;45.30;;;;;;6186914;23;20004;-78
2022/04/11 09:49:13;;;;;;;3.75;3.25;;;13.50;46.90;;;;;;6213447;23;20029;-78
2022/04/11 09:52:07;;;;;;;6.88;3.65;;;13.60;45.50;;;;;;6213765;23;20437;-78
2022/04/11 09:54:38;;;;;;;3.58;3.08;;;13.60;46.50;;;;;;6213568;23;20011;-78
2022/04/11 09:57:07;;;;;;;7.57;4.38;;;13.60;47.00;;;;;;6213437;23;20011;-78
2022/04/11 09:59:34;;;;;;;6.03;3.85;;;13.80;47.70;;;;;;6213485;23;20004;-78
2022/04/11 10:02:01;;;;;;;6.88;4.05;;;13.80;46.30;;;;;;6213179;23;20083;-78
2022/04/11 10:04:27;;;;;;;5.90;4.22;;;13.80;46.00;;;;;;6187082;23;20001;-78
2022/04/11 10:06:54;;;;;;;5.85;3.83;;;13.70;46.60;;;;;;6213457;23;20333;-78
2022/04/11 10:09:23;;;;;;;7.40;3.88;;;13.90;46.70;;;;;;6213305;23;20008;-78
2022/04/11 10:11:50;;;;;;;6.15;3.90;;;13.90;45.80;;;;;;6213692;23;20013;-78
2022/04/11 10:14:25;;;;;;;6.35;3.95;;;14.00;47.50;;;;;;6213686;23;20026;-78
2022/04/11 10:16:54;;;;;;;4.53;3.47;;;14.00;46.40;;;;;;6213435;23;20087;-78
2022/04/11 10:19:27;;;;;;;8.95;4.15;;;14.10;46.10;;;;;;6213643;23;20005;-78
2022/04/11 10:21:57;;;;;;;8.27;4.03;;;14.10;47.00;;;;;;6213502;23;20028;-78
2022/04/11 10:24:56;;;;;;;11.82;4.18;;;14.30;46.70;;;;;;6186812;23;20000;-78
2022/04/11 10:27:25;;;;;;;6.25;4.25;;;14.30;46.60;;;;;;6213554;23;20076;-78
2022/04/11 10:29:55;;;;;;;5.20;3.55;;;14.50;48.40;;;;;;6213817;23;20001;-78
2022/04/11 10:32:24;;;;;;;7.85;4.20;;;14.70;49.30;;;;;;6213346;23;20117;-78
2022/04/11 10:35:17;;;;;;;8.20;3.92;;;14.90;49.40;;;;;;6213290;23;20051;-78
2022/04/11 10:37:43;;;;;;;4.47;3.25;;;14.80;49.60;;;;;;6210601;23;20444;-78
2022/04/11 10:40:21;;;;;;;8.65;3.90;;;14.90;47.40;;;;;;6186767;23;20444;-78
2022/04/11 10:43:07;;;;;;;8.95;4.18;;;15.10;46.00;;;;;;6213470;23;20005;-78
2022/04/11 10:45:38;;;;;;;4.50;3.63;;;15.20;46.90;;;;;;6186797;23;20459;-78
2022/04/11 10:48:05;;;;;;;6.30;4.03;;;15.30;47.00;;;;;;6213493;23;20001;-78
2022/04/11 10:50:35;;;;;;;5.03;3.63;;;15.40;45.20;;;;;;6186707;23;20058;-78
2022/04/11 10:53:17;;;;;;;4.65;3.78;;;15.50;46.20;;;;;;6186684;23;20008;-78
2022/04/11 10:55:59;;;;;;;5.50;3.60;;;15.60;44.20;;;;;;6188216;23;20016;-78
2022/04/11 10:58:44;;;;;;;8.00;3.95;;;15.60;44.20;;;;;;6215255;23;20032;-78
2022/04/11 11:01:11;;;;;;;4.05;2.88;;;15.90;43.20;;;;;;6215367;23;20331;-78
2022/04/11 11:03:40;;;;;;;7.43;3.42;;;16.00;44.60;;;;;;6215444;23;20001;-78
2022/04/11 11:06:20;;;;;;;5.38;3.80;;;16.20;46.00;;;;;;6215083;23;20455;-78
2022/04/11 11:08:46;;;;;;;4.68;3.28;;;16.30;43.90;;;;;;6215221;23;19996;-78
2022/04/11 11:11:26;;;;;;;6.30;3.47;;;16.50;43.70;;;;;;6165093;23;20021;-78
2022/04/11 11:13:54;;;;;;;5.50;3.40;;;16.50;42.40;;;;;;6158489;23;20468;-78
2022/04/11 11:16:20;;;;;;;5.18;3.08;;;16.40;41.80;;;;;;6158549;23;20009;-78
2022/04/11 11:18:49;;;;;;;5.97;3.20;;;16.60;42.70;;;;;;6185265;23;20012;-78
2022/04/11 11:21:27;;;;;;;4.95;3.70;;;16.70;42.50;;;;;;6185129;23;20005;-78
2022/04/11 11:24:02;;;;;;;6.05;3.28;;;16.70;40.60;;;;;;6184889;23;20004;-78
2022/04/11 11:26:49;;;;;;;3.83;3.33;;;16.80;41.40;;;;;;6184900;23;20083;-78
2022/04/11 11:29:20;;;;;;;4.50;4.00;;;16.90;43.20;;;;;;6133735;23;20354;-78
2022/04/11 11:31:49;;;;;;;6.65;3.17;;;17.00;42.20;;;;;;6184914;23;20442;-78
2022/04/11 11:34:17;;;;;;;5.15;3.20;;;17.20;43.70;;;;;;6184752;23;20449;-78
2022/04/11 11:36:43;;;;;;;5.82;3.15;;;17.20;42.20;;;;;;6184526;23;20016;-78
2022/04/11 11:39:13;;;;;;;4.32;3.50;;;17.20;41.30;;;;;;6185169;23;20341;-78
2022/04/11 11:41:42;;;;;;;5.20;3.58;;;17.20;41.10;;;;;;6184930;23;20201;-78
2022/04/11 11:44:11;;;;;;;5.10;3.10;;;17.10;39.50;;;;;;6184688;23;20055;-78
2022/04/11 11:46:59;;;;;;;3.95;3.03;;;17.30;42.60;;;;;;6184638;23;20055;-78
2022/04/11 11:49:27;;;;;;;5.93;3.22;;;17.40;41.90;;;;;;6158214;23;20025;-78
2022/04/11 11:51:54;;;;;;;5.85;3.55;;;17.40;40.50;;;;;;6184730;23;20319;-78
2022/04/11 11:54:40;;;;;;;4.15;3.20;;;17.30;39.50;;;;;;6184706;23;20029;-78
2022/04/11 11:57:32;;;;;;;4.03;3.20;;;17.50;40.30;;;;;;6184789;23;20001;-78
2022/04/11 12:00:01;;;;;;;4.00;3.33;;;17.70;40.70;;;;;;6153109;23;20409;-78
2022/04/11 12:05:33;;;;;;;4.72;3.25;;;17.90;39.30;;;;;;6184367;23;20124;-78
2022/04/11 12:08:05;;;;;;;4.32;3.58;;;17.80;37.90;;;;;;6157854;23;20088;-78
2022/04/11 12:10:31;;;;;;;7.70;4.20;;;18.00;40.20;;;;;;6199241;23;20017;-78
2022/04/11 12:12:57;;;;;;;6.10;3.58;;;18.20;42.00;;;;;;6188113;23;20012;-78
2022/04/11 12:15:23;;;;;;;5.28;3.72;;;18.40;41.60;;;;;;6214594;23;20394;-78
2022/04/11 12:17:59;;;;;;;6.00;3.72;;;18.40;40.30;;;;;;6214365;23;20005;-78
2022/04/11 12:20:28;;;;;;;5.25;3.78;;;18.60;41.40;;;;;;6214473;23;20056;-78
2022/04/11 12:23:07;;;;;;;4.32;3.40;;;18.50;38.70;;;;;;6214410;23;20001;-78
2022/04/11 12:25:39;;;;;;;5.22;4.20;;;18.70;40.60;;;;;;6214602;23;20008;-78
2022/04/11 12:28:22;;;;;;;8.50;4.53;;;18.80;40.00;;;;;;6188076;23;20439;-78
2022/04/11 12:31:02;;;;;;;5.63;4.15;;;18.70;39.50;;;;;;6214623;23;20005;-78
2022/04/11 12:33:35;;;;;;;8.07;4.63;;;18.70;38.90;;;;;;6214435;23;19997;-78
2022/04/11 12:36:11;;;;;;;5.20;4.18;;;18.60;38.90;;;;;;6187552;23;20479;-78
2022/04/11 12:38:50;;;;;;;6.55;4.80;;;18.60;39.70;;;;;;6214519;23;20007;-78
2022/04/11 12:41:29;;;;;;;7.82;4.20;;;18.80;41.70;;;;;;6214295;23;20372;-78
2022/04/11 12:44:10;;;;;;;4.85;4.00;;;19.00;42.10;;;;;;6187773;23;20443;-78
2022/04/11 12:46:41;;;;;;;6.35;4.85;;;19.00;42.40;;;;;;6214182;23;20000;-78
2022/04/11 12:49:09;;;;;;;6.75;4.40;;;19.10;40.10;;;;;;6187444;23;20000;-78
2022/04/11 12:51:36;;;;;;;5.20;4.70;;;19.10;39.80;;;;;;6187495;23;20004;-78
2022/04/11 12:54:12;;;;;;;7.97;4.38;;;19.20;39.90;;;;;;6214358;23;20051;-78
2022/04/11 12:56:44;;;;;;;7.85;3.85;;;19.20;38.90;;;;;;6214011;23;20004;-78
2022/04/11 12:59:11;;;;;;;4.35;3.78;;;19.30;39.40;;;;;;6214223;23;20459;-78
2022/04/11 13:01:50;;;;;;;7.18;4.55;;;19.30;39.80;;;;;;6187260;23;20005;-78